sensor_id;sensor_type;location;lat;lon;timestamp;temperature;humidity
59309;DHT22;48433;53.016;-2.260;2022-08-18T00:02:06;15.80;99.90
59309;DHT22;48433;53.016;-2.260;2022-08-18T00:04:36;15.80;99.90
59309;DHT22;48433;53.016;-2.260;2022-08-18T00:07:18;15.70;99.90
59309;DHT22;48433;53.016;-2.260;2022-08-18T00:09:45;15.70;99.90
59309;DHT22;48433;53.016;-2.260;2022-08-18T00:12:20;15.70;99.90
59309;DHT22;48433;53.016;-2.260;2022-08-18T00:14:49;15.60;99.90
59309;DHT22;48433;53.016;-2.260;2022-08-18T00:17:17;15.70;99.90
59309;DHT22;48433;53.016;-2.260;2022-08-18T00:19:46;15.70;99.90
59309;DHT22;48433;53.016;-2.260;2022-08-18T00:22:17;15.70;99.90
59309;DHT22;48433;53.016;-2.260;2022-08-18T00:24:52;15.60;99.90
59309;DHT22;48433;53.016;-2.260;2022-08-18T00:27:26;15.60;99.90
59309;DHT22;48433;53.016;-2.260;2022-08-18T00:30:01;15.70;99.90
59309;DHT22;48433;53.016;-2.260;2022-08-18T00:32:35;15.60;99.90
59309;DHT22;48433;53.016;-2.260;2022-08-18T00:35:21;15.60;99.90
59309;DHT22;48433;53.016;-2.260;2022-08-18T00:37:57;15.60;99.90
59309;DHT22;48433;53.016;-2.260;2022-08-18T00:40:29;15.60;99.90
59309;DHT22;48433;53.016;-2.260;2022-08-18T00:43:05;15.50;99.90
59309;DHT22;48433;53.016;-2.260;2022-08-18T00:45:36;15.50;99.90
59309;DHT22;48433;53.016;-2.260;2022-08-18T00:48:07;15.50;99.90
59309;DHT22;48433;53.016;-2.260;2022-08-18T00:50:51;15.50;99.90
59309;DHT22;48433;53.016;-2.260;2022-08-18T00:53:42;15.50;99.90
59309;DHT22;48433;53.016;-2.260;2022-08-18T00:56:22;15.50;99.90
59309;DHT22;48433;53.016;-2.260;2022-08-18T01:01:59;15.60;99.90
59309;DHT22;48433;53.016;-2.260;2022-08-18T01:04:44;15.60;99.90
59309;DHT22;48433;53.016;-2.260;2022-08-18T01:07:20;15.60;99.90
59309;DHT22;48433;53.016;-2.260;2022-08-18T01:09:49;15.60;99.90
59309;DHT22;48433;53.016;-2.260;2022-08-18T01:12:18;15.60;99.90
59309;DHT22;48433;53.016;-2.260;2022-08-18T01:15:06;15.60;99.90
59309;DHT22;48433;53.016;-2.260;2022-08-18T01:17:57;15.70;99.90
59309;DHT22;48433;53.016;-2.260;2022-08-18T01:23:56;15.70;99.90
59309;DHT22;48433;53.016;-2.260;2022-08-18T01:26:25;15.70;99.90
59309;DHT22;48433;53.016;-2.260;2022-08-18T01:28:54;15.70;99.90
59309;DHT22;48433;53.016;-2.260;2022-08-18T01:31:43;15.70;99.90
59309;DHT22;48433;53.016;-2.260;2022-08-18T01:34:24;15.70;99.90
59309;DHT22;48433;53.016;-2.260;2022-08-18T01:36:53;15.70;99.90
59309;DHT22;48433;53.016;-2.260;2022-08-18T01:39:22;15.70;99.90
59309;DHT22;48433;53.016;-2.260;2022-08-18T01:42:11;15.70;99.90
59309;DHT22;48433;53.016;-2.260;2022-08-18T01:44:39;15.70;99.90
59309;DHT22;48433;53.016;-2.260;2022-08-18T01:47:09;15.70;99.90
59309;DHT22;48433;53.016;-2.260;2022-08-18T01:49:38;15.70;99.90
59309;DHT22;48433;53.016;-2.260;2022-08-18T01:52:18;15.70;99.90
59309;DHT22;48433;53.016;-2.260;2022-08-18T01:54:47;15.70;99.90
59309;DHT22;48433;53.016;-2.260;2022-08-18T01:57:16;15.70;99.90
59309;DHT22;48433;53.016;-2.260;2022-08-18T01:59:44;15.70;99.90
59309;DHT22;48433;53.016;-2.260;2022-08-18T02:02:14;15.70;99.90
59309;DHT22;48433;53.016;-2.260;2022-08-18T02:04:45;15.70;99.90
59309;DHT22;48433;53.016;-2.260;2022-08-18T02:07:14;15.70;99.90
59309;DHT22;48433;53.016;-2.260;2022-08-18T02:09:42;15.60;99.90
59309;DHT22;48433;53.016;-2.260;2022-08-18T02:12:10;15.60;99.90
59309;DHT22;48433;53.016;-2.260;2022-08-18T02:14:38;15.60;99.90
59309;DHT22;48433;53.016;-2.260;2022-08-18T02:17:08;15.60;99.90
59309;DHT22;48433;53.016;-2.260;2022-08-18T02:19:40;15.60;99.90
59309;DHT22;48433;53.016;-2.260;2022-08-18T02:22:09;15.60;99.90
59309;DHT22;48433;53.016;-2.260;2022-08-18T02:24:37;15.60;99.90
59309;DHT22;48433;53.016;-2.260;2022-08-18T02:27:07;15.60;99.90
59309;DHT22;48433;53.016;-2.260;2022-08-18T02:29:35;15.60;99.90
59309;DHT22;48433;53.016;-2.260;2022-08-18T02:32:04;15.60;99.90
59309;DHT22;48433;53.016;-2.260;2022-08-18T02:34:32;15.60;99.90
59309;DHT22;48433;53.016;-2.260;2022-08-18T02:37:00;15.60;99.90
59309;DHT22;48433;53.016;-2.260;2022-08-18T02:39:28;15.60;99.90
59309;DHT22;48433;53.016;-2.260;2022-08-18T02:41:56;15.60;99.90
59309;DHT22;48433;53.016;-2.260;2022-08-18T02:44:24;15.50;99.90
59309;DHT22;48433;53.016;-2.260;2022-08-18T02:46:53;15.50;99.90
59309;DHT22;48433;53.016;-2.260;2022-08-18T02:49:21;15.50;99.90
59309;DHT22;48433;53.016;-2.260;2022-08-18T02:51:52;15.50;99.90
59309;DHT22;48433;53.016;-2.260;2022-08-18T02:54:22;15.50;99.90
59309;DHT22;48433;53.016;-2.260;2022-08-18T02:56:51;15.50;99.90
59309;DHT22;48433;53.016;-2.260;2022-08-18T02:59:26;15.50;99.90
59309;DHT22;48433;53.016;-2.260;2022-08-18T03:01:58;15.40;99.90
59309;DHT22;48433;53.016;-2.260;2022-08-18T03:04:28;15.40;99.90
59309;DHT22;48433;53.016;-2.260;2022-08-18T03:07:00;14.30;99.90
59309;DHT22;48433;53.016;-2.260;2022-08-18T03:09:29;15.40;99.90
59309;DHT22;48433;53.016;-2.260;2022-08-18T03:11:57;15.40;99.90
59309;DHT22;48433;53.016;-2.260;2022-08-18T03:14:25;15.50;99.90
59309;DHT22;48433;53.016;-2.260;2022-08-18T03:16:53;15.40;99.90
59309;DHT22;48433;53.016;-2.260;2022-08-18T03:19:27;15.50;99.90
59309;DHT22;48433;53.016;-2.260;2022-08-18T03:21:57;15.50;99.90
59309;DHT22;48433;53.016;-2.260;2022-08-18T03:24:30;15.50;99.90
59309;DHT22;48433;53.016;-2.260;2022-08-18T03:26:59;15.50;99.90
59309;DHT22;48433;53.016;-2.260;2022-08-18T03:29:28;15.50;99.90
59309;DHT22;48433;53.016;-2.260;2022-08-18T03:32:01;15.50;99.90
59309;DHT22;48433;53.016;-2.260;2022-08-18T03:34:29;15.50;99.90
59309;DHT22;48433;53.016;-2.260;2022-08-18T03:36:58;15.50;99.90
59309;DHT22;48433;53.016;-2.260;2022-08-18T03:39:26;15.60;99.90
59309;DHT22;48433;53.016;-2.260;2022-08-18T03:41:55;15.50;99.90
59309;DHT22;48433;53.016;-2.260;2022-08-18T03:44:30;15.60;99.90
59309;DHT22;48433;53.016;-2.260;2022-08-18T03:46:58;15.60;99.90
59309;DHT22;48433;53.016;-2.260;2022-08-18T03:49:30;15.60;99.90
59309;DHT22;48433;53.016;-2.260;2022-08-18T03:52:00;15.60;99.90
59309;DHT22;48433;53.016;-2.260;2022-08-18T03:54:30;15.60;99.90
59309;DHT22;48433;53.016;-2.260;2022-08-18T03:57:01;15.70;99.90
59309;DHT22;48433;53.016;-2.260;2022-08-18T03:59:28;15.70;99.90
59309;DHT22;48433;53.016;-2.260;2022-08-18T04:02:01;15.70;99.90
59309;DHT22;48433;53.016;-2.260;2022-08-18T04:04:29;15.70;99.90
59309;DHT22;48433;53.016;-2.260;2022-08-18T04:07:01;15.70;99.90
59309;DHT22;48433;53.016;-2.260;2022-08-18T04:09:32;15.70;99.90
59309;DHT22;48433;53.016;-2.260;2022-08-18T04:12:11;15.70;99.90
59309;DHT22;48433;53.016;-2.260;2022-08-18T04:14:45;15.70;99.90
59309;DHT22;48433;53.016;-2.260;2022-08-18T04:17:16;15.70;99.90
59309;DHT22;48433;53.016;-2.260;2022-08-18T04:19:51;15.70;99.90
59309;DHT22;48433;53.016;-2.260;2022-08-18T04:22:19;15.80;99.90
59309;DHT22;48433;53.016;-2.260;2022-08-18T04:24:48;15.70;99.90
59309;DHT22;48433;53.016;-2.260;2022-08-18T04:27:19;15.70;99.90
59309;DHT22;48433;53.016;-2.260;2022-08-18T04:29:47;15.70;99.90
59309;DHT22;48433;53.016;-2.260;2022-08-18T04:32:16;15.70;99.90
59309;DHT22;48433;53.016;-2.260;2022-08-18T04:34:44;15.70;99.90
59309;DHT22;48433;53.016;-2.260;2022-08-18T04:37:11;15.70;99.90
59309;DHT22;48433;53.016;-2.260;2022-08-18T04:39:42;15.70;99.90
59309;DHT22;48433;53.016;-2.260;2022-08-18T04:42:10;15.70;99.90
59309;DHT22;48433;53.016;-2.260;2022-08-18T04:44:38;15.70;99.90
59309;DHT22;48433;53.016;-2.260;2022-08-18T04:47:06;15.70;99.90
59309;DHT22;48433;53.016;-2.260;2022-08-18T04:49:36;15.70;99.90
59309;DHT22;48433;53.016;-2.260;2022-08-18T04:52:05;15.70;99.90
59309;DHT22;48433;53.016;-2.260;2022-08-18T04:55:09;15.70;99.90
59309;DHT22;48433;53.016;-2.260;2022-08-18T04:57:37;15.70;99.90
59309;DHT22;48433;53.016;-2.260;2022-08-18T05:00:06;15.70;99.90
59309;DHT22;48433;53.016;-2.260;2022-08-18T05:02:34;15.70;99.90
59309;DHT22;48433;53.016;-2.260;2022-08-18T05:05:03;15.70;99.90
59309;DHT22;48433;53.016;-2.260;2022-08-18T05:07:31;15.70;99.90
59309;DHT22;48433;53.016;-2.260;2022-08-18T05:09:59;15.60;99.90
59309;DHT22;48433;53.016;-2.260;2022-08-18T05:12:27;15.60;99.90
59309;DHT22;48433;53.016;-2.260;2022-08-18T05:14:55;15.60;99.90
59309;DHT22;48433;53.016;-2.260;2022-08-18T05:17:26;15.60;99.90
59309;DHT22;48433;53.016;-2.260;2022-08-18T05:19:58;15.60;99.90
59309;DHT22;48433;53.016;-2.260;2022-08-18T05:22:39;15.70;99.90
59309;DHT22;48433;53.016;-2.260;2022-08-18T05:25:09;15.70;99.90
59309;DHT22;48433;53.016;-2.260;2022-08-18T05:27:41;15.70;99.90
59309;DHT22;48433;53.016;-2.260;2022-08-18T05:30:10;15.70;99.90
59309;DHT22;48433;53.016;-2.260;2022-08-18T05:32:39;15.70;99.90
59309;DHT22;48433;53.016;-2.260;2022-08-18T05:35:31;15.70;99.90
59309;DHT22;48433;53.016;-2.260;2022-08-18T05:38:32;15.70;99.90
59309;DHT22;48433;53.016;-2.260;2022-08-18T05:41:25;15.70;99.90
59309;DHT22;48433;53.016;-2.260;2022-08-18T05:43:56;15.70;99.90
59309;DHT22;48433;53.016;-2.260;2022-08-18T05:46:55;15.70;99.90
59309;DHT22;48433;53.016;-2.260;2022-08-18T05:49:24;15.70;99.90
59309;DHT22;48433;53.016;-2.260;2022-08-18T05:51:56;15.80;99.90
59309;DHT22;48433;53.016;-2.260;2022-08-18T05:54:28;15.80;99.90
59309;DHT22;48433;53.016;-2.260;2022-08-18T05:57:19;15.80;99.90
59309;DHT22;48433;53.016;-2.260;2022-08-18T05:59:51;15.80;99.90
59309;DHT22;48433;53.016;-2.260;2022-08-18T06:05:04;15.90;99.90
59309;DHT22;48433;53.016;-2.260;2022-08-18T06:07:35;15.90;99.90
59309;DHT22;48433;53.016;-2.260;2022-08-18T06:10:05;15.90;99.90
59309;DHT22;48433;53.016;-2.260;2022-08-18T06:12:48;15.90;99.90
59309;DHT22;48433;53.016;-2.260;2022-08-18T06:23:56;15.90;99.90
59309;DHT22;48433;53.016;-2.260;2022-08-18T06:29:35;15.90;99.90
59309;DHT22;48433;53.016;-2.260;2022-08-18T06:44:10;16.00;99.90
59309;DHT22;48433;53.016;-2.260;2022-08-18T06:46:47;16.00;99.90
59309;DHT22;48433;53.016;-2.260;2022-08-18T06:49:34;16.10;99.90
59309;DHT22;48433;53.016;-2.260;2022-08-18T06:54:50;16.10;99.90
59309;DHT22;48433;53.016;-2.260;2022-08-18T06:57:27;16.10;99.90
59309;DHT22;48433;53.016;-2.260;2022-08-18T06:59:58;16.10;99.90
59309;DHT22;48433;53.016;-2.260;2022-08-18T07:05:27;16.10;99.90
59309;DHT22;48433;53.016;-2.260;2022-08-18T07:10:36;16.30;99.90
59309;DHT22;48433;53.016;-2.260;2022-08-18T07:13:27;16.40;99.90
59309;DHT22;48433;53.016;-2.260;2022-08-18T07:16:16;16.50;99.90
59309;DHT22;48433;53.016;-2.260;2022-08-18T07:19:11;16.70;99.90
59309;DHT22;48433;53.016;-2.260;2022-08-18T07:21:39;16.80;99.90
59309;DHT22;48433;53.016;-2.260;2022-08-18T07:24:24;16.90;99.90
59309;DHT22;48433;53.016;-2.260;2022-08-18T07:27:11;17.00;99.90
59309;DHT22;48433;53.016;-2.260;2022-08-18T07:30:28;17.10;99.90
59309;DHT22;48433;53.016;-2.260;2022-08-18T07:32:46;17.10;99.90
59309;DHT22;48433;53.016;-2.260;2022-08-18T07:35:18;17.20;99.90
59309;DHT22;48433;53.016;-2.260;2022-08-18T07:38:09;17.20;99.90
59309;DHT22;48433;53.016;-2.260;2022-08-18T07:41:22;17.30;99.90
59309;DHT22;48433;53.016;-2.260;2022-08-18T07:46:46;17.50;99.90
59309;DHT22;48433;53.016;-2.260;2022-08-18T07:49:19;17.60;99.90
59309;DHT22;48433;53.016;-2.260;2022-08-18T07:51:55;17.60;99.90
59309;DHT22;48433;53.016;-2.260;2022-08-18T07:57:59;17.60;99.90
59309;DHT22;48433;53.016;-2.260;2022-08-18T08:00:34;17.60;99.90
59309;DHT22;48433;53.016;-2.260;2022-08-18T08:11:58;17.90;99.90
59309;DHT22;48433;53.016;-2.260;2022-08-18T08:14:48;18.00;99.90
59309;DHT22;48433;53.016;-2.260;2022-08-18T08:34:27;18.10;99.90
59309;DHT22;48433;53.016;-2.260;2022-08-18T08:37:03;18.00;99.90
59309;DHT22;48433;53.016;-2.260;2022-08-18T08:42:13;18.10;99.90
59309;DHT22;48433;53.016;-2.260;2022-08-18T08:45:19;18.20;99.90
59309;DHT22;48433;53.016;-2.260;2022-08-18T08:50:38;18.60;99.90
59309;DHT22;48433;53.016;-2.260;2022-08-18T08:53:31;18.80;99.90
59309;DHT22;48433;53.016;-2.260;2022-08-18T08:56:05;19.00;99.90
59309;DHT22;48433;53.016;-2.260;2022-08-18T09:01:09;19.40;99.90
59309;DHT22;48433;53.016;-2.260;2022-08-18T09:10:06;20.00;99.90
59309;DHT22;48433;53.016;-2.260;2022-08-18T09:22:33;20.60;99.90
59309;DHT22;48433;53.016;-2.260;2022-08-18T09:25:30;20.60;99.90
59309;DHT22;48433;53.016;-2.260;2022-08-18T09:45:00;21.10;99.90
59309;DHT22;48433;53.016;-2.260;2022-08-18T09:58:17;20.60;99.90
59309;DHT22;48433;53.016;-2.260;2022-08-18T10:01:22;20.60;99.90
59309;DHT22;48433;53.016;-2.260;2022-08-18T10:06:43;21.00;99.90
59309;DHT22;48433;53.016;-2.260;2022-08-18T10:20:32;22.20;98.50
59309;DHT22;48433;53.016;-2.260;2022-08-18T10:23:07;22.50;98.00
59309;DHT22;48433;53.016;-2.260;2022-08-18T10:25:41;22.60;98.00
59309;DHT22;48433;53.016;-2.260;2022-08-18T10:31:03;22.50;96.70
59309;DHT22;48433;53.016;-2.260;2022-08-18T10:39:08;22.30;97.20
59309;DHT22;48433;53.016;-2.260;2022-08-18T10:41:37;22.40;97.10
59309;DHT22;48433;53.016;-2.260;2022-08-18T10:44:14;22.50;96.70
59309;DHT22;48433;53.016;-2.260;2022-08-18T10:46:57;22.40;96.60
59309;DHT22;48433;53.016;-2.260;2022-08-18T10:49:28;22.10;96.60
59309;DHT22;48433;53.016;-2.260;2022-08-18T10:52:14;21.90;97.00
59309;DHT22;48433;53.016;-2.260;2022-08-18T11:00:41;21.50;97.50
59309;DHT22;48433;53.016;-2.260;2022-08-18T11:06:22;21.10;98.00
59309;DHT22;48433;53.016;-2.260;2022-08-18T11:08:58;21.00;98.30
59309;DHT22;48433;53.016;-2.260;2022-08-18T11:11:35;20.90;98.40
59309;DHT22;48433;53.016;-2.260;2022-08-18T11:17:12;20.70;98.70
59309;DHT22;48433;53.016;-2.260;2022-08-18T11:19:43;20.60;98.70
59309;DHT22;48433;53.016;-2.260;2022-08-18T11:22:30;20.60;99.00
59309;DHT22;48433;53.016;-2.260;2022-08-18T11:25:02;20.70;99.20
59309;DHT22;48433;53.016;-2.260;2022-08-18T11:27:45;20.90;98.90
59309;DHT22;48433;53.016;-2.260;2022-08-18T11:30:14;21.10;98.50
59309;DHT22;48433;53.016;-2.260;2022-08-18T11:32:44;21.30;98.30
59309;DHT22;48433;53.016;-2.260;2022-08-18T11:36:06;21.40;98.10
59309;DHT22;48433;53.016;-2.260;2022-08-18T11:38:11;21.30;98.00
59309;DHT22;48433;53.016;-2.260;2022-08-18T11:40:53;21.10;98.30
59309;DHT22;48433;53.016;-2.260;2022-08-18T11:43:39;21.00;98.60
59309;DHT22;48433;53.016;-2.260;2022-08-18T11:48:45;20.70;98.80
59309;DHT22;48433;53.016;-2.260;2022-08-18T11:51:34;20.50;99.40
59309;DHT22;48433;53.016;-2.260;2022-08-18T11:54:19;20.30;99.90
59309;DHT22;48433;53.016;-2.260;2022-08-18T11:56:49;20.20;99.90
59309;DHT22;48433;53.016;-2.260;2022-08-18T12:02:16;19.90;99.90
59309;DHT22;48433;53.016;-2.260;2022-08-18T12:04:49;19.90;99.90
59309;DHT22;48433;53.016;-2.260;2022-08-18T12:07:34;20.10;99.90
59309;DHT22;48433;53.016;-2.260;2022-08-18T12:10:25;20.40;99.90
59309;DHT22;48433;53.016;-2.260;2022-08-18T12:12:56;20.80;99.90
59309;DHT22;48433;53.016;-2.260;2022-08-18T12:15:30;21.10;99.90
59309;DHT22;48433;53.016;-2.260;2022-08-18T12:18:14;21.40;99.90
59309;DHT22;48433;53.016;-2.260;2022-08-18T12:20:58;22.00;99.90
59309;DHT22;48433;53.016;-2.260;2022-08-18T12:23:31;22.40;98.50
59309;DHT22;48433;53.016;-2.260;2022-08-18T12:26:05;22.60;97.90
59309;DHT22;48433;53.016;-2.260;2022-08-18T12:28:54;22.80;97.40
59309;DHT22;48433;53.016;-2.260;2022-08-18T12:31:27;22.80;96.80
59309;DHT22;48433;53.016;-2.260;2022-08-18T12:34:20;22.60;96.40
59309;DHT22;48433;53.016;-2.260;2022-08-18T12:36:57;22.40;96.90
59309;DHT22;48433;53.016;-2.260;2022-08-18T12:39:28;22.30;97.00
59309;DHT22;48433;53.016;-2.260;2022-08-18T12:41:58;22.10;97.10
59309;DHT22;48433;53.016;-2.260;2022-08-18T12:44:25;22.10;96.60
59309;DHT22;48433;53.016;-2.260;2022-08-18T12:46:54;22.00;96.60
59309;DHT22;48433;53.016;-2.260;2022-08-18T12:49:23;22.00;96.60
59309;DHT22;48433;53.016;-2.260;2022-08-18T12:51:53;22.00;96.60
59309;DHT22;48433;53.016;-2.260;2022-08-18T12:54:22;22.00;96.40
59309;DHT22;48433;53.016;-2.260;2022-08-18T12:56:54;22.00;96.40
59309;DHT22;48433;53.016;-2.260;2022-08-18T12:59:22;22.00;96.40
59309;DHT22;48433;53.016;-2.260;2022-08-18T13:01:51;21.90;96.30
59309;DHT22;48433;53.016;-2.260;2022-08-18T13:04:27;22.00;96.30
59309;DHT22;48433;53.016;-2.260;2022-08-18T13:06:58;22.00;96.30
59309;DHT22;48433;53.016;-2.260;2022-08-18T13:09:33;22.10;96.50
59309;DHT22;48433;53.016;-2.260;2022-08-18T13:12:21;22.10;96.40
59309;DHT22;48433;53.016;-2.260;2022-08-18T13:14:53;22.10;96.60
59309;DHT22;48433;53.016;-2.260;2022-08-18T13:17:22;22.10;96.60
59309;DHT22;48433;53.016;-2.260;2022-08-18T13:20:07;22.00;96.30
59309;DHT22;48433;53.016;-2.260;2022-08-18T13:22:36;21.90;96.50
59309;DHT22;48433;53.016;-2.260;2022-08-18T13:25:09;21.90;96.80
59309;DHT22;48433;53.016;-2.260;2022-08-18T13:27:38;22.00;97.00
59309;DHT22;48433;53.016;-2.260;2022-08-18T13:30:15;22.10;96.80
59309;DHT22;48433;53.016;-2.260;2022-08-18T13:33:02;22.20;96.60
59309;DHT22;48433;53.016;-2.260;2022-08-18T13:35:51;22.20;96.30
59309;DHT22;48433;53.016;-2.260;2022-08-18T13:38:21;22.30;96.40
59309;DHT22;48433;53.016;-2.260;2022-08-18T13:40:57;22.40;96.20
59309;DHT22;48433;53.016;-2.260;2022-08-18T13:43:31;22.60;96.00
59309;DHT22;48433;53.016;-2.260;2022-08-18T13:46:05;22.80;95.90
59309;DHT22;48433;53.016;-2.260;2022-08-18T13:48:36;23.10;95.60
59309;DHT22;48433;53.016;-2.260;2022-08-18T13:51:06;23.20;94.70
59309;DHT22;48433;53.016;-2.260;2022-08-18T13:53:36;23.10;94.10
59309;DHT22;48433;53.016;-2.260;2022-08-18T13:56:24;23.00;94.40
59309;DHT22;48433;53.016;-2.260;2022-08-18T13:58:58;22.80;94.40
59309;DHT22;48433;53.016;-2.260;2022-08-18T14:01:26;22.70;94.60
59309;DHT22;48433;53.016;-2.260;2022-08-18T14:04:14;22.70;94.90
59309;DHT22;48433;53.016;-2.260;2022-08-18T14:06:47;22.60;94.90
59309;DHT22;48433;53.016;-2.260;2022-08-18T14:09:25;22.50;95.00
59309;DHT22;48433;53.016;-2.260;2022-08-18T14:12:30;22.40;95.30
59309;DHT22;48433;53.016;-2.260;2022-08-18T14:14:59;22.30;95.60
59309;DHT22;48433;53.016;-2.260;2022-08-18T14:17:27;22.30;96.10
59309;DHT22;48433;53.016;-2.260;2022-08-18T14:19:55;22.50;96.10
59309;DHT22;48433;53.016;-2.260;2022-08-18T14:22:55;22.70;95.60
59309;DHT22;48433;53.016;-2.260;2022-08-18T14:25:50;22.80;95.10
59309;DHT22;48433;53.016;-2.260;2022-08-18T14:28:37;22.70;94.90
59309;DHT22;48433;53.016;-2.260;2022-08-18T14:31:07;22.70;95.10
59309;DHT22;48433;53.016;-2.260;2022-08-18T14:33:36;22.70;95.20
59309;DHT22;48433;53.016;-2.260;2022-08-18T14:36:18;22.70;95.20
59309;DHT22;48433;53.016;-2.260;2022-08-18T14:38:58;22.70;95.20
59309;DHT22;48433;53.016;-2.260;2022-08-18T14:41:26;22.60;95.20
59309;DHT22;48433;53.016;-2.260;2022-08-18T14:43:55;22.50;95.40
59309;DHT22;48433;53.016;-2.260;2022-08-18T14:46:41;22.40;95.40
59309;DHT22;48433;53.016;-2.260;2022-08-18T14:49:22;22.30;95.80
59309;DHT22;48433;53.016;-2.260;2022-08-18T14:52:00;22.20;96.00
59309;DHT22;48433;53.016;-2.260;2022-08-18T14:54:28;22.10;96.30
59309;DHT22;48433;53.016;-2.260;2022-08-18T14:56:59;22.00;96.60
59309;DHT22;48433;53.016;-2.260;2022-08-18T14:59:31;22.00;96.90
59309;DHT22;48433;53.016;-2.260;2022-08-18T15:02:06;22.00;97.00
59309;DHT22;48433;53.016;-2.260;2022-08-18T15:04:41;22.00;97.20
59309;DHT22;48433;53.016;-2.260;2022-08-18T15:07:22;21.90;97.40
59309;DHT22;48433;53.016;-2.260;2022-08-18T15:09:50;21.90;97.50
59309;DHT22;48433;53.016;-2.260;2022-08-18T15:12:38;21.90;97.40
59309;DHT22;48433;53.016;-2.260;2022-08-18T15:15:08;21.70;97.90
59309;DHT22;48433;53.016;-2.260;2022-08-18T15:17:44;21.50;98.70
59309;DHT22;48433;53.016;-2.260;2022-08-18T15:20:21;21.20;99.60
59309;DHT22;48433;53.016;-2.260;2022-08-18T15:23:02;20.80;99.90
59309;DHT22;48433;53.016;-2.260;2022-08-18T15:25:54;20.40;99.90
59309;DHT22;48433;53.016;-2.260;2022-08-18T15:28:23;20.10;99.90
59309;DHT22;48433;53.016;-2.260;2022-08-18T15:30:53;19.80;99.90
59309;DHT22;48433;53.016;-2.260;2022-08-18T15:33:41;19.60;99.90
59309;DHT22;48433;53.016;-2.260;2022-08-18T15:36:09;19.60;99.90
59309;DHT22;48433;53.016;-2.260;2022-08-18T15:38:42;19.80;99.90
59309;DHT22;48433;53.016;-2.260;2022-08-18T15:41:27;20.00;99.90
59309;DHT22;48433;53.016;-2.260;2022-08-18T15:43:57;20.10;99.90
59309;DHT22;48433;53.016;-2.260;2022-08-18T15:46:25;20.20;99.90
59309;DHT22;48433;53.016;-2.260;2022-08-18T15:48:54;20.10;99.90
59309;DHT22;48433;53.016;-2.260;2022-08-18T15:51:22;20.00;99.90
59309;DHT22;48433;53.016;-2.260;2022-08-18T15:53:51;19.90;99.90
59309;DHT22;48433;53.016;-2.260;2022-08-18T15:56:23;19.90;99.90
59309;DHT22;48433;53.016;-2.260;2022-08-18T15:58:52;20.10;99.90
59309;DHT22;48433;53.016;-2.260;2022-08-18T16:01:21;20.20;99.90
59309;DHT22;48433;53.016;-2.260;2022-08-18T16:03:59;20.30;99.90
59309;DHT22;48433;53.016;-2.260;2022-08-18T16:06:30;20.30;99.90
59309;DHT22;48433;53.016;-2.260;2022-08-18T16:09:00;20.30;99.90
59309;DHT22;48433;53.016;-2.260;2022-08-18T16:11:28;20.30;99.90
59309;DHT22;48433;53.016;-2.260;2022-08-18T16:13:57;20.30;99.90
59309;DHT22;48433;53.016;-2.260;2022-08-18T16:16:27;20.20;99.90
59309;DHT22;48433;53.016;-2.260;2022-08-18T16:19:04;20.20;99.90
59309;DHT22;48433;53.016;-2.260;2022-08-18T16:21:33;20.20;99.90
59309;DHT22;48433;53.016;-2.260;2022-08-18T16:24:04;20.10;99.90
59309;DHT22;48433;53.016;-2.260;2022-08-18T16:26:32;20.10;99.90
59309;DHT22;48433;53.016;-2.260;2022-08-18T16:29:00;20.00;99.90
59309;DHT22;48433;53.016;-2.260;2022-08-18T16:31:28;20.00;99.90
59309;DHT22;48433;53.016;-2.260;2022-08-18T16:33:56;20.00;99.90
59309;DHT22;48433;53.016;-2.260;2022-08-18T16:36:25;19.90;99.90
59309;DHT22;48433;53.016;-2.260;2022-08-18T16:38:54;19.80;99.90
59309;DHT22;48433;53.016;-2.260;2022-08-18T16:41:25;19.80;99.90
59309;DHT22;48433;53.016;-2.260;2022-08-18T16:43:53;19.70;99.90
59309;DHT22;48433;53.016;-2.260;2022-08-18T16:46:23;19.80;99.90
59309;DHT22;48433;53.016;-2.260;2022-08-18T16:48:55;19.80;99.90
59309;DHT22;48433;53.016;-2.260;2022-08-18T16:51:26;19.80;99.90
59309;DHT22;48433;53.016;-2.260;2022-08-18T16:53:54;19.80;99.90
59309;DHT22;48433;53.016;-2.260;2022-08-18T16:56:24;19.80;99.90
59309;DHT22;48433;53.016;-2.260;2022-08-18T16:58:52;19.80;99.90
59309;DHT22;48433;53.016;-2.260;2022-08-18T17:01:42;19.90;99.90
59309;DHT22;48433;53.016;-2.260;2022-08-18T17:04:30;19.90;99.90
59309;DHT22;48433;53.016;-2.260;2022-08-18T17:07:04;19.90;99.90
59309;DHT22;48433;53.016;-2.260;2022-08-18T17:09:33;19.90;99.90
59309;DHT22;48433;53.016;-2.260;2022-08-18T17:12:01;20.00;99.90
59309;DHT22;48433;53.016;-2.260;2022-08-18T17:14:30;19.90;99.90
59309;DHT22;48433;53.016;-2.260;2022-08-18T17:16:58;19.90;99.90
59309;DHT22;48433;53.016;-2.260;2022-08-18T17:19:30;19.90;99.90
59309;DHT22;48433;53.016;-2.260;2022-08-18T17:22:00;19.90;99.90
59309;DHT22;48433;53.016;-2.260;2022-08-18T17:24:28;19.90;99.90
59309;DHT22;48433;53.016;-2.260;2022-08-18T17:32:29;19.80;99.90
59309;DHT22;48433;53.016;-2.260;2022-08-18T17:35:06;19.80;99.90
59309;DHT22;48433;53.016;-2.260;2022-08-18T17:37:34;19.80;99.90
59309;DHT22;48433;53.016;-2.260;2022-08-18T17:40:08;19.70;99.90
59309;DHT22;48433;53.016;-2.260;2022-08-18T17:42:39;19.70;99.90
59309;DHT22;48433;53.016;-2.260;2022-08-18T17:45:09;19.60;99.90
59309;DHT22;48433;53.016;-2.260;2022-08-18T17:48:14;19.50;99.90
59309;DHT22;48433;53.016;-2.260;2022-08-18T17:50:53;19.40;99.90
59309;DHT22;48433;53.016;-2.260;2022-08-18T17:53:42;19.30;99.90
59309;DHT22;48433;53.016;-2.260;2022-08-18T17:56:30;19.30;99.90
59309;DHT22;48433;53.016;-2.260;2022-08-18T17:59:17;19.30;99.90
59309;DHT22;48433;53.016;-2.260;2022-08-18T18:02:09;19.20;99.90
59309;DHT22;48433;53.016;-2.260;2022-08-18T18:04:56;19.20;99.90
59309;DHT22;48433;53.016;-2.260;2022-08-18T18:07:51;19.10;99.90
59309;DHT22;48433;53.016;-2.260;2022-08-18T18:10:42;19.10;99.90
59309;DHT22;48433;53.016;-2.260;2022-08-18T18:13:31;19.10;99.90
59309;DHT22;48433;53.016;-2.260;2022-08-18T18:16:25;19.00;99.90
59309;DHT22;48433;53.016;-2.260;2022-08-18T18:19:01;19.00;99.90
59309;DHT22;48433;53.016;-2.260;2022-08-18T18:21:33;18.90;99.90
59309;DHT22;48433;53.016;-2.260;2022-08-18T18:24:28;18.90;99.90
59309;DHT22;48433;53.016;-2.260;2022-08-18T18:26:56;18.90;99.90
59309;DHT22;48433;53.016;-2.260;2022-08-18T18:29:26;18.90;99.90
59309;DHT22;48433;53.016;-2.260;2022-08-18T18:38:22;18.90;99.90
59309;DHT22;48433;53.016;-2.260;2022-08-18T18:41:00;18.90;99.90
59309;DHT22;48433;53.016;-2.260;2022-08-18T18:43:36;18.90;99.90
59309;DHT22;48433;53.016;-2.260;2022-08-18T18:51:56;18.80;99.90
59309;DHT22;48433;53.016;-2.260;2022-08-18T18:57:32;18.70;99.90
59309;DHT22;48433;53.016;-2.260;2022-08-18T19:13:42;18.80;99.90
59309;DHT22;48433;53.016;-2.260;2022-08-18T19:16:30;18.80;99.90
59309;DHT22;48433;53.016;-2.260;2022-08-18T19:25:06;18.90;99.90
59309;DHT22;48433;53.016;-2.260;2022-08-18T19:27:55;18.90;99.90
59309;DHT22;48433;53.016;-2.260;2022-08-18T19:30:25;18.90;99.90